createdAt,value
2022-08-02T00:00:03.672Z,2.31
2022-08-02T00:01:03.917Z,2.4
2022-08-02T00:02:03.763Z,2.4
2022-08-02T00:03:03.666Z,2.44
2022-08-02T00:04:03.678Z,2.44
2022-08-02T00:05:03.665Z,1.85
2022-08-02T00:06:03.669Z,1.85
2022-08-02T00:07:03.666Z,4.02
2022-08-02T00:08:03.666Z,4.02
2022-08-02T00:09:03.674Z,1.95
2022-08-02T00:10:03.659Z,1.95
2022-08-02T00:11:04.641Z,2.26
2022-08-02T00:12:03.654Z,2.26
2022-08-02T00:13:03.665Z,2.25
2022-08-02T00:14:03.661Z,2.25
2022-08-02T00:15:03.659Z,2.89
2022-08-02T00:16:03.648Z,2.89
2022-08-02T00:17:03.652Z,2.12
2022-08-02T00:18:03.657Z,2.12
2022-08-02T00:19:03.650Z,2.44
2022-08-02T00:20:03.640Z,2.44
2022-08-02T00:21:03.655Z,4.09
2022-08-02T00:22:03.640Z,4.09
2022-08-02T00:23:03.648Z,4.34
2022-08-02T00:24:29.074Z,4.34
2022-08-02T00:25:03.636Z,2.18
2022-08-02T00:26:03.633Z,2.18
2022-08-02T00:27:03.635Z,2.6
2022-08-02T00:28:03.665Z,2.6
2022-08-02T00:29:03.633Z,2.13
2022-08-02T00:30:03.669Z,2.13
2022-08-02T00:31:03.633Z,1.64
2022-08-02T00:32:03.628Z,1.64
2022-08-02T00:33:03.658Z,2.6
2022-08-02T00:34:27.106Z,2.6
2022-08-02T00:35:03.631Z,3.54
2022-08-02T00:36:03.633Z,3.54
2022-08-02T00:37:03.624Z,2.12
2022-08-02T00:38:03.660Z,2.12
2022-08-02T00:39:03.623Z,2.29
2022-08-02T00:40:03.625Z,2.29
2022-08-02T00:41:03.618Z,3.89
2022-08-02T00:42:03.634Z,3.89
2022-08-02T00:43:03.661Z,2.31
2022-08-02T00:44:03.616Z,2.31
2022-08-02T00:45:03.626Z,2.19
2022-08-02T00:46:04.017Z,2.19
2022-08-02T00:47:03.616Z,2.48
2022-08-02T00:48:03.625Z,2.48
2022-08-02T00:49:03.686Z,1.68
2022-08-02T00:50:03.616Z,1.68
2022-08-02T00:51:03.610Z,2.33
2022-08-02T00:52:03.613Z,2.33
2022-08-02T00:53:03.610Z,1.88
2022-08-02T00:54:03.633Z,1.88
2022-08-02T00:55:03.607Z,1.98
2022-08-02T00:56:03.605Z,1.98
2022-08-02T00:57:03.605Z,2.07
2022-08-02T00:58:03.610Z,2.07
2022-08-02T00:59:03.617Z,2.66
2022-08-02T01:00:03.612Z,2.66
2022-08-02T01:01:03.759Z,2.29
2022-08-02T01:02:03.696Z,2.29
2022-08-02T01:03:03.605Z,2.56
2022-08-02T01:04:03.599Z,2.56
2022-08-02T01:05:03.590Z,2.16
2022-08-02T01:06:11.617Z,2.16
2022-08-02T01:07:03.613Z,3.2
2022-08-02T01:08:03.596Z,3.2
2022-08-02T01:09:03.590Z,1.93
2022-08-02T01:10:03.604Z,1.93
2022-08-02T01:11:03.585Z,2.08
2022-08-02T01:12:03.585Z,2.08
2022-08-02T01:13:03.595Z,2.3
2022-08-02T01:14:03.585Z,2.3
2022-08-02T01:15:03.594Z,2.45
2022-08-02T01:16:03.585Z,2.45
2022-08-02T01:17:03.576Z,2.07
2022-08-02T01:18:03.586Z,2.07
2022-08-02T01:19:03.575Z,2.52
2022-08-02T01:20:03.586Z,2.52
2022-08-02T01:21:03.570Z,2.16
2022-08-02T01:22:03.579Z,2.16
2022-08-02T01:23:03.687Z,2.41
2022-08-02T01:24:03.574Z,2.41
2022-08-02T01:25:03.580Z,1.95
2022-08-02T01:26:03.577Z,1.95
2022-08-02T01:27:03.593Z,3.18
2022-08-02T01:28:03.564Z,3.18
2022-08-02T01:29:03.562Z,2.62
2022-08-02T01:30:03.600Z,2.62
2022-08-02T01:31:03.561Z,2.48
2022-08-02T01:32:03.574Z,2.48
2022-08-02T01:33:03.556Z,2.44
2022-08-02T01:34:03.559Z,2.44
2022-08-02T01:35:03.562Z,2.05
2022-08-02T01:36:03.567Z,2.05
2022-08-02T01:37:03.562Z,1.57
2022-08-02T01:38:03.550Z,1.57
2022-08-02T01:39:03.560Z,1.97
2022-08-02T01:40:03.566Z,1.97
2022-08-02T01:41:03.556Z,2.19
2022-08-02T01:42:03.556Z,2.19
2022-08-02T01:43:03.555Z,1.98
2022-08-02T01:44:03.548Z,1.98
2022-08-02T01:45:03.545Z,1.77
2022-08-02T01:46:03.556Z,1.77
2022-08-02T01:47:03.539Z,2.58
2022-08-02T01:48:03.542Z,2.58
2022-08-02T01:49:03.657Z,1.84
2022-08-02T01:50:03.536Z,1.84
2022-08-02T01:51:03.550Z,2.06
2022-08-02T01:52:03.537Z,2.06
2022-08-02T01:53:03.546Z,1.93
2022-08-02T01:54:03.533Z,1.93
2022-08-02T01:55:03.529Z,1.84
2022-08-02T01:56:03.543Z,1.84
2022-08-02T01:57:03.530Z,1.98
2022-08-02T01:58:03.529Z,1.98
2022-08-02T01:59:03.533Z,2.76
2022-08-02T02:00:03.531Z,2.76
2022-08-02T02:01:03.603Z,2.19
2022-08-02T02:02:03.522Z,2.19
2022-08-02T02:03:03.536Z,2.16
2022-08-02T02:04:03.525Z,2.16
2022-08-02T02:05:03.522Z,2.26
2022-08-02T02:06:03.525Z,2.26
2022-08-02T02:07:03.534Z,2.04
2022-08-02T02:08:03.531Z,2.04
2022-08-02T02:09:04.911Z,1.95
2022-08-02T02:10:03.523Z,1.95
2022-08-02T02:12:05.226Z,1.81
2022-08-02T02:12:14.113Z,1.81
2022-08-02T02:13:03.510Z,2.7
2022-08-02T02:14:03.515Z,2.7
2022-08-02T02:15:03.509Z,1.67
2022-08-02T02:16:03.517Z,1.67
2022-08-02T02:17:03.519Z,2.31
2022-08-02T02:18:12.950Z,2.31
2022-08-02T02:19:03.508Z,3.23
2022-08-02T02:20:03.501Z,3.23
2022-08-02T02:21:03.509Z,2.45
2022-08-02T02:22:03.513Z,2.45
2022-08-02T02:23:04.018Z,2.18
2022-08-02T02:24:03.510Z,2.18
2022-08-02T02:25:06.378Z,1.94
2022-08-02T02:26:03.857Z,1.94
2022-08-02T02:27:03.499Z,2.27
2022-08-02T02:28:03.536Z,2.27
2022-08-02T02:29:03.504Z,1.95
2022-08-02T02:30:03.591Z,1.95
2022-08-02T02:31:03.510Z,1.76
2022-08-02T02:32:03.520Z,1.76
2022-08-02T02:33:03.528Z,1.72
2022-08-02T02:34:03.491Z,1.72
2022-08-02T02:35:03.485Z,2.01
2022-08-02T02:36:03.481Z,2.01
2022-08-02T02:37:03.490Z,1.91
2022-08-02T02:38:03.495Z,1.91
2022-08-02T02:39:03.484Z,4.02
2022-08-02T02:40:03.486Z,4.02
2022-08-02T02:41:03.483Z,1.78
2022-08-02T02:42:03.494Z,1.78
2022-08-02T02:43:03.509Z,1.68
2022-08-02T02:44:03.479Z,1.68
2022-08-02T02:45:03.481Z,2.01
2022-08-02T02:46:03.477Z,2.01
2022-08-02T02:47:03.475Z,2.18
2022-08-02T02:48:03.486Z,2.18
2022-08-02T02:49:03.509Z,2.37
2022-08-02T02:50:03.465Z,2.37
2022-08-02T02:51:03.469Z,1.86
2022-08-02T02:52:03.477Z,1.86
2022-08-02T02:53:03.471Z,4.15
2022-08-02T02:54:33.296Z,4.15
2022-08-02T02:55:03.470Z,1.91
2022-08-02T02:56:03.466Z,1.91
2022-08-02T02:57:03.478Z,2.04
2022-08-02T02:58:03.468Z,2.04
2022-08-02T02:59:03.460Z,2.1
2022-08-02T03:00:03.472Z,2.1
2022-08-02T03:01:03.487Z,1.84
2022-08-02T03:02:03.511Z,1.84
2022-08-02T03:03:03.449Z,1.73
2022-08-02T03:04:03.456Z,1.73
2022-08-02T03:05:03.471Z,2.43
2022-08-02T03:06:03.451Z,2.43
2022-08-02T03:07:03.457Z,1.94
2022-08-02T03:08:03.462Z,1.94
2022-08-02T03:09:03.451Z,2.18
2022-08-02T03:10:03.456Z,2.18
2022-08-02T03:11:05.238Z,2.73
2022-08-02T03:12:03.447Z,2.73
2022-08-02T03:13:03.473Z,2.1
2022-08-02T03:14:03.444Z,2.1
2022-08-02T03:15:03.448Z,1.61
2022-08-02T03:16:03.455Z,1.61
2022-08-02T03:17:03.450Z,2.01
2022-08-02T03:18:03.439Z,2.01
2022-08-02T03:19:03.442Z,1.9
2022-08-02T03:20:03.443Z,1.9
2022-08-02T03:21:03.438Z,1.86
2022-08-02T03:22:03.433Z,1.86
2022-08-02T03:23:03.437Z,2.04
2022-08-02T03:24:03.436Z,2.04
2022-08-02T03:25:03.432Z,1.95
2022-08-02T03:26:03.446Z,1.95
2022-08-02T03:27:03.428Z,1.77
2022-08-02T03:28:03.430Z,1.77
2022-08-02T03:29:10.847Z,2.09
2022-08-02T03:30:03.466Z,2.09
2022-08-02T03:31:03.426Z,3
2022-08-02T03:32:03.427Z,3
2022-08-02T03:33:03.431Z,2.04
2022-08-02T03:34:03.424Z,2.04
2022-08-02T03:35:03.448Z,1.61
2022-08-02T03:36:03.434Z,1.61
2022-08-02T03:37:03.421Z,2.04
2022-08-02T03:38:03.412Z,2.04
2022-08-02T03:39:03.410Z,2.18
2022-08-02T03:40:03.408Z,2.18
2022-08-02T03:41:03.421Z,1.71
2022-08-02T03:42:03.414Z,1.71
2022-08-02T03:43:03.403Z,2.04
2022-08-02T03:44:03.411Z,2.04
2022-08-02T03:45:08.091Z,2.13
2022-08-02T03:46:03.408Z,2.13
2022-08-02T03:47:03.403Z,2.17
2022-08-02T03:48:03.412Z,2.17
2022-08-02T03:49:03.500Z,3.12
2022-08-02T03:50:03.395Z,3.12
2022-08-02T03:51:03.397Z,2.17
2022-08-02T03:52:03.399Z,2.17
2022-08-02T03:53:03.409Z,2.01
2022-08-02T03:54:03.393Z,2.01
2022-08-02T03:55:03.395Z,2.1
2022-08-02T03:56:03.400Z,2.1
2022-08-02T03:57:03.400Z,1.94
2022-08-02T03:58:03.402Z,1.94
2022-08-02T03:59:03.392Z,1.71
2022-08-02T04:00:03.391Z,1.71
2022-08-02T04:01:03.505Z,1.93
2022-08-02T04:02:03.430Z,1.93
2022-08-02T04:03:03.387Z,1.86
2022-08-02T04:04:03.389Z,1.86
2022-08-02T04:05:03.390Z,1.99
2022-08-02T04:06:04.893Z,1.99
2022-08-02T04:07:03.386Z,1.98
2022-08-02T04:08:36.015Z,1.98
2022-08-02T04:09:03.376Z,2.08
2022-08-02T04:10:03.374Z,2.08
2022-08-02T04:11:03.472Z,2.07
2022-08-02T04:12:03.368Z,2.07
2022-08-02T04:13:03.373Z,2.41
2022-08-02T04:14:03.376Z,2.41
2022-08-02T04:15:03.382Z,3.88
2022-08-02T04:16:03.385Z,3.88
2022-08-02T04:17:03.383Z,1.93
2022-08-02T04:18:03.371Z,1.93
2022-08-02T04:19:03.367Z,1.7
2022-08-02T04:20:03.401Z,1.7
2022-08-02T04:21:03.372Z,2.63
2022-08-02T04:22:03.371Z,2.63
2022-08-02T04:23:03.373Z,2.1
2022-08-02T04:24:03.366Z,2.1
2022-08-02T04:25:03.372Z,2.09
2022-08-02T04:26:03.358Z,2.09
2022-08-02T04:27:19.249Z,1.79
2022-08-02T04:28:16.806Z,1.79
2022-08-02T04:29:03.352Z,2.03
2022-08-02T04:30:03.383Z,2.03
2022-08-02T04:31:03.358Z,1.88
2022-08-02T04:32:03.368Z,1.88
2022-08-02T04:33:03.349Z,1.68
2022-08-02T04:34:03.355Z,1.68
2022-08-02T04:35:19.853Z,1.78
2022-08-02T04:36:03.355Z,1.78
2022-08-02T04:37:03.352Z,2.03
2022-08-02T04:38:08.399Z,2.03
2022-08-02T04:39:03.350Z,2.01
2022-08-02T04:40:03.351Z,2.01
2022-08-02T04:41:03.353Z,1.88
2022-08-02T04:42:03.357Z,1.88
2022-08-02T04:43:03.357Z,4.29
2022-08-02T04:44:03.343Z,4.29
2022-08-02T04:45:03.343Z,1.4
2022-08-02T04:46:03.347Z,1.4
2022-08-02T04:47:06.753Z,2.4
2022-08-02T04:48:05.606Z,2.4
2022-08-02T04:49:03.450Z,2.14
2022-08-02T04:50:03.348Z,2.14
2022-08-02T04:51:03.348Z,1.85
2022-08-02T04:52:03.363Z,1.85
2022-08-02T04:53:03.353Z,1.76
2022-08-02T04:54:06.310Z,1.76
2022-08-02T04:55:03.348Z,2.09
2022-08-02T04:56:03.343Z,2.09
2022-08-02T04:57:03.356Z,2.02
2022-08-02T04:58:06.672Z,2.02
2022-08-02T04:59:03.346Z,2.04
2022-08-02T05:00:03.338Z,2.04
2022-08-02T05:01:03.476Z,2.37
2022-08-02T05:02:03.346Z,2.37
2022-08-02T05:03:03.340Z,1.89
2022-08-02T05:04:03.347Z,1.89
2022-08-02T05:05:08.248Z,2.09
2022-08-02T05:06:03.357Z,2.09
2022-08-02T05:07:03.344Z,2.24
2022-08-02T05:08:03.330Z,2.24
2022-08-02T05:09:03.327Z,2.09
2022-08-02T05:10:03.333Z,2.09
2022-08-02T05:11:03.325Z,1.81
2022-08-02T05:12:03.324Z,1.81
2022-08-02T05:13:03.324Z,1.75
2022-08-02T05:14:03.327Z,1.75
2022-08-02T05:15:03.329Z,5.74
2022-08-02T05:16:03.321Z,5.74
2022-08-02T05:17:03.315Z,2.87
2022-08-02T05:18:03.321Z,2.87
2022-08-02T05:19:03.454Z,2.21
2022-08-02T05:20:03.330Z,2.21
2022-08-02T05:21:03.326Z,2.5
2022-08-02T05:22:03.310Z,2.5
2022-08-02T05:23:03.313Z,2.05
2022-08-02T05:24:03.320Z,2.05
2022-08-02T05:25:03.325Z,2.05
2022-08-02T05:26:03.326Z,2.05
2022-08-02T05:27:03.309Z,2.04
2022-08-02T05:28:06.073Z,2.04
2022-08-02T05:29:03.305Z,1.77
2022-08-02T05:30:03.327Z,1.77
2022-08-02T05:31:03.326Z,1.94
2022-08-02T05:32:03.317Z,1.94
2022-08-02T05:33:03.299Z,3.71
2022-08-02T05:34:03.299Z,3.71
2022-08-02T05:35:03.299Z,2.14
2022-08-02T05:36:03.379Z,2.14
2022-08-02T05:37:03.309Z,2.03
2022-08-02T05:38:03.307Z,2.03
2022-08-02T05:39:04.932Z,1.39
2022-08-02T05:40:03.290Z,1.39
2022-08-02T05:41:03.292Z,2.43
2022-08-02T05:42:03.297Z,2.43
2022-08-02T05:43:03.320Z,2.25
2022-08-02T05:44:03.291Z,2.25
2022-08-02T05:45:03.298Z,1.66
2022-08-02T05:46:03.290Z,1.66
2022-08-02T05:47:03.291Z,1.67
2022-08-02T05:48:03.948Z,1.67
2022-08-02T05:49:03.364Z,1.71
2022-08-02T05:50:03.286Z,1.71
2022-08-02T05:51:03.296Z,1.72
2022-08-02T05:52:03.309Z,1.72
2022-08-02T05:53:03.285Z,2.13
2022-08-02T05:54:03.277Z,2.13
2022-08-02T05:55:03.269Z,1.84
2022-08-02T05:56:08.079Z,1.84
2022-08-02T05:57:03.279Z,2
2022-08-02T05:58:03.276Z,2
2022-08-02T05:59:03.287Z,1.84
2022-08-02T06:00:03.272Z,1.84
2022-08-02T06:01:03.274Z,1.81
2022-08-02T06:02:03.403Z,1.81
2022-08-02T06:03:03.271Z,2.39
2022-08-02T06:04:03.277Z,2.39
2022-08-02T06:05:03.397Z,2.16
2022-08-02T06:06:03.279Z,2.16
2022-08-02T06:07:03.262Z,2.09
2022-08-02T06:08:03.258Z,2.09
2022-08-02T06:09:03.261Z,2.07
2022-08-02T06:10:03.258Z,2.07
2022-08-02T06:11:03.270Z,3.29
2022-08-02T06:12:03.293Z,3.29
2022-08-02T06:13:03.249Z,2.65
2022-08-02T06:14:03.270Z,2.65
2022-08-02T06:15:03.262Z,2.06
2022-08-02T06:16:03.266Z,2.06
2022-08-02T06:17:03.674Z,1.81
2022-08-02T06:18:03.244Z,1.81
2022-08-02T06:19:03.255Z,1.97
2022-08-02T06:20:03.257Z,1.97
2022-08-02T06:22:32.483Z,1.67
2022-08-02T06:22:34.917Z,1.67
2022-08-02T06:23:03.242Z,3.6
2022-08-02T06:24:03.250Z,3.6
2022-08-02T06:25:03.241Z,2.25
2022-08-02T06:26:03.248Z,2.25
2022-08-02T06:27:03.233Z,2.25
2022-08-02T06:28:03.243Z,2.25
2022-08-02T06:29:03.246Z,1.68
2022-08-02T06:30:03.254Z,1.68
2022-08-02T06:31:03.237Z,2.57
2022-08-02T06:32:04.424Z,2.57
2022-08-02T06:33:03.235Z,2.27
2022-08-02T06:34:03.239Z,2.27
2022-08-02T06:35:03.234Z,2.32
2022-08-02T06:36:03.224Z,2.32
2022-08-02T06:37:03.224Z,4.88
2022-08-02T06:38:03.231Z,4.88
2022-08-02T06:39:03.248Z,2
2022-08-02T06:40:03.225Z,2
2022-08-02T06:41:03.223Z,3.17
2022-08-02T06:42:03.215Z,3.17
2022-08-02T06:43:03.216Z,1.82
2022-08-02T06:44:26.198Z,1.82
2022-08-02T06:45:03.225Z,2.29
2022-08-02T06:46:54.332Z,2.29
2022-08-02T06:47:11.568Z,1.57
2022-08-02T06:48:03.216Z,1.57
2022-08-02T06:49:03.304Z,2.22
2022-08-02T06:50:03.354Z,2.22
2022-08-02T06:51:03.216Z,2
2022-08-02T06:52:03.215Z,2
2022-08-02T06:53:03.224Z,2.1
2022-08-02T06:54:03.212Z,2.1
2022-08-02T06:55:03.219Z,1.89
2022-08-02T06:56:03.207Z,1.89
2022-08-02T06:57:03.214Z,2.14
2022-08-02T06:58:03.196Z,2.14
2022-08-02T06:59:06.105Z,1.8
2022-08-02T07:00:03.210Z,1.8
2022-08-02T07:01:03.207Z,2.08
2022-08-02T07:02:03.268Z,2.08
2022-08-02T07:03:03.195Z,2
2022-08-02T07:04:03.200Z,2
2022-08-02T07:05:03.197Z,2.02
2022-08-02T07:06:03.192Z,2.02
2022-08-02T07:07:03.197Z,1.84
2022-08-02T07:08:03.197Z,1.84
2022-08-02T07:09:20.104Z,1.9
2022-08-02T07:10:03.195Z,1.9
2022-08-02T07:11:03.192Z,3.16
2022-08-02T07:12:03.184Z,3.16
2022-08-02T07:13:03.197Z,1.67
2022-08-02T07:14:03.196Z,1.67
2022-08-02T07:15:03.190Z,1.98
2022-08-02T07:16:03.174Z,1.98
2022-08-02T07:17:03.180Z,2.04
2022-08-02T07:18:03.195Z,2.04
2022-08-02T07:19:03.174Z,1.62
2022-08-02T07:20:03.185Z,1.62
2022-08-02T07:21:03.182Z,3.35
2022-08-02T07:22:03.175Z,3.35
2022-08-02T07:23:03.191Z,1.79
2022-08-02T07:24:03.174Z,1.79
2022-08-02T07:25:03.172Z,1.87
2022-08-02T07:26:05.432Z,1.87
2022-08-02T07:27:12.077Z,2.02
2022-08-02T07:28:03.180Z,2.02
2022-08-02T07:29:03.160Z,1.85
2022-08-02T07:30:03.194Z,1.85
2022-08-02T07:31:03.161Z,1.86
2022-08-02T07:32:03.163Z,1.86
2022-08-02T07:33:03.173Z,2.09
2022-08-02T07:34:03.157Z,2.09
2022-08-02T07:35:07.026Z,1.68
2022-08-02T07:36:04.677Z,1.68
2022-08-02T07:37:03.168Z,2.04
2022-08-02T07:38:03.168Z,2.04
2022-08-02T07:39:03.164Z,1.52
2022-08-02T07:40:04.674Z,1.52
2022-08-02T07:41:03.161Z,2.19
2022-08-02T07:42:03.149Z,2.19
2022-08-02T07:43:04.299Z,2.32
2022-08-02T07:44:03.151Z,2.32
2022-08-02T07:45:03.146Z,2.24
2022-08-02T07:46:03.157Z,2.24
2022-08-02T07:47:03.144Z,2.33
2022-08-02T07:48:03.145Z,2.33
2022-08-02T07:49:03.227Z,1.39
2022-08-02T07:50:03.147Z,1.39
2022-08-02T07:51:03.154Z,1.9
2022-08-02T07:52:03.138Z,1.9
2022-08-02T07:53:03.146Z,4.2
2022-08-02T07:54:04.291Z,4.2
2022-08-02T07:55:03.156Z,2.95
2022-08-02T07:56:03.152Z,2.95
2022-08-02T07:57:03.158Z,2.18
2022-08-02T07:58:03.148Z,2.18
2022-08-02T07:59:03.160Z,1.5
2022-08-02T08:00:03.155Z,1.5
2022-08-02T08:01:03.177Z,1.84
2022-08-02T08:02:03.276Z,1.84
2022-08-02T08:03:03.147Z,1.6
2022-08-02T08:04:03.157Z,1.6
2022-08-02T08:05:03.177Z,2.54
2022-08-02T08:06:03.146Z,2.54
2022-08-02T08:07:03.135Z,2.68
2022-08-02T08:08:03.136Z,2.68
2022-08-02T08:09:03.142Z,1.86
2022-08-02T08:10:03.130Z,1.86
2022-08-02T08:11:03.146Z,1.88
2022-08-02T08:12:03.131Z,1.88
2022-08-02T08:13:03.133Z,1.35
2022-08-02T08:14:03.125Z,1.35
2022-08-02T08:15:03.134Z,2.09
2022-08-02T08:16:03.130Z,2.09
2022-08-02T08:17:03.126Z,2.21
2022-08-02T08:18:03.140Z,2.21
2022-08-02T08:19:03.123Z,2.09
2022-08-02T08:20:03.120Z,2.09
2022-08-02T08:21:03.118Z,1.87
2022-08-02T08:22:03.120Z,1.87
2022-08-02T08:23:03.124Z,2.03
2022-08-02T08:24:03.109Z,2.03
2022-08-02T08:25:03.120Z,1.75
2022-08-02T08:26:03.110Z,1.75
2022-08-02T08:27:05.737Z,1.54
2022-08-02T08:28:03.136Z,1.54
2022-08-02T08:29:03.110Z,1.85
2022-08-02T08:30:03.292Z,1.85
2022-08-02T08:31:03.104Z,2.22
2022-08-02T08:32:03.112Z,2.22
2022-08-02T08:33:03.112Z,1.78
2022-08-02T08:34:03.101Z,1.78
2022-08-02T08:35:03.111Z,2.22
2022-08-02T08:36:03.106Z,2.22
2022-08-02T08:37:03.111Z,1.3
2022-08-02T08:38:07.446Z,1.3
2022-08-02T08:39:03.096Z,1.9
2022-08-02T08:40:03.110Z,1.9
2022-08-02T08:41:03.100Z,1.66
2022-08-02T08:42:03.098Z,1.66
2022-08-02T08:43:03.102Z,3.33
2022-08-02T08:44:03.119Z,3.33
2022-08-02T08:45:03.087Z,1.72
2022-08-02T08:46:03.120Z,1.72
2022-08-02T08:47:03.100Z,3.72
2022-08-02T08:48:03.082Z,3.72
2022-08-02T08:49:03.147Z,1.89
2022-08-02T08:50:03.110Z,1.89
2022-08-02T08:51:03.109Z,1.72
2022-08-02T08:52:03.092Z,1.72
2022-08-02T08:53:03.087Z,1.74
2022-08-02T08:54:03.084Z,1.74
2022-08-02T08:55:03.080Z,1.53
2022-08-02T08:56:03.087Z,1.53
2022-08-02T08:57:03.077Z,2.27
2022-08-02T08:58:03.074Z,2.27
2022-08-02T08:59:03.073Z,1.99
2022-08-02T09:00:03.082Z,1.99
2022-08-02T09:01:03.129Z,2.24
2022-08-02T09:02:15.650Z,2.24
2022-08-02T09:03:03.064Z,2.02
2022-08-02T09:04:04.160Z,2.02
2022-08-02T09:05:03.071Z,1.88
2022-08-02T09:06:03.083Z,1.88
2022-08-02T09:07:03.069Z,2.21
2022-08-02T09:08:03.107Z,2.21
2022-08-02T09:09:03.067Z,1.49
2022-08-02T09:10:03.058Z,1.49
2022-08-02T09:11:03.069Z,1.8
2022-08-02T09:12:03.074Z,1.8
2022-08-02T09:13:03.064Z,1.61
2022-08-02T09:14:03.065Z,1.61
2022-08-02T09:15:03.059Z,2.05
2022-08-02T09:16:11.755Z,2.05
2022-08-02T09:17:03.055Z,1.83
2022-08-02T09:18:03.066Z,1.83
2022-08-02T09:19:03.048Z,1.98
2022-08-02T09:20:03.059Z,1.98
2022-08-02T09:21:04.529Z,1.99
2022-08-02T09:22:03.049Z,1.99
2022-08-02T09:23:03.045Z,1.84
2022-08-02T09:24:03.041Z,1.84
2022-08-02T09:25:03.043Z,2.27
2022-08-02T09:26:07.123Z,2.27
2022-08-02T09:27:03.042Z,2.05
2022-08-02T09:28:03.045Z,2.05
2022-08-02T09:29:03.040Z,3.3
2022-08-02T09:30:12.156Z,3.3
2022-08-02T09:31:03.046Z,2.01
2022-08-02T09:32:03.072Z,2.01
2022-08-02T09:33:05.545Z,2.26
2022-08-02T09:34:03.037Z,2.26
2022-08-02T09:35:03.034Z,2.36
2022-08-02T09:36:05.472Z,2.36
2022-08-02T09:37:03.073Z,2.06
2022-08-02T09:38:03.033Z,2.06
2022-08-02T09:39:03.060Z,1.82
2022-08-02T09:40:03.030Z,1.82
2022-08-02T09:41:03.025Z,1.71
2022-08-02T09:42:03.037Z,1.71
2022-08-02T09:43:03.029Z,2.49
2022-08-02T09:44:06.174Z,2.49
2022-08-02T09:45:03.026Z,2.1
2022-08-02T09:46:03.041Z,2.1
2022-08-02T09:47:03.030Z,2.15
2022-08-02T09:48:03.014Z,2.15
2022-08-02T09:49:03.266Z,2.45
2022-08-02T09:50:03.027Z,2.45
2022-08-02T09:51:03.017Z,1.82
2022-08-02T09:52:03.018Z,1.82
2022-08-02T09:53:03.009Z,2.45
2022-08-02T09:54:08.348Z,2.45
2022-08-02T09:55:03.037Z,1.71
2022-08-02T09:56:03.011Z,1.71
2022-08-02T09:57:03.008Z,3.57
2022-08-02T09:58:03.007Z,3.57
2022-08-02T09:59:03.005Z,2.65
2022-08-02T10:00:03.018Z,2.65
2022-08-02T10:01:03.135Z,2.18
2022-08-02T10:02:04.192Z,2.18
2022-08-02T10:03:03.009Z,2.01
2022-08-02T10:04:03.004Z,2.01
2022-08-02T10:05:03.009Z,3.23
2022-08-02T10:06:03.500Z,3.23
2022-08-02T10:07:02.995Z,12.34
2022-08-02T10:08:02.996Z,12.34
2022-08-02T10:09:03.005Z,9.51
2022-08-02T10:10:02.994Z,9.51
2022-08-02T10:11:02.995Z,7.46
2022-08-02T10:12:03.577Z,7.46
2022-08-02T10:13:02.987Z,5.47
2022-08-02T10:14:02.992Z,5.47
2022-08-02T10:15:02.994Z,11.92
2022-08-02T10:16:02.987Z,11.92
2022-08-02T10:17:02.985Z,8.66
2022-08-02T10:18:12.967Z,8.66
2022-08-02T10:19:02.995Z,6.38
2022-08-02T10:20:04.888Z,6.38
2022-08-02T10:21:02.981Z,5.9
2022-08-02T10:22:02.989Z,5.9
2022-08-02T10:23:02.979Z,6.89
2022-08-02T10:24:02.975Z,6.89
2022-08-02T10:25:02.983Z,6.64
2022-08-02T10:26:02.981Z,6.64
2022-08-02T10:27:02.978Z,7.23
2022-08-02T10:28:05.590Z,7.23
2022-08-02T10:29:02.979Z,5.58
2022-08-02T10:30:03.005Z,5.58
2022-08-02T10:31:04.785Z,5.63
2022-08-02T10:32:02.968Z,5.63
2022-08-02T10:33:02.969Z,5.37
2022-08-02T10:34:02.974Z,5.37
2022-08-02T10:35:20.018Z,4.22
2022-08-02T10:36:04.492Z,4.22
2022-08-02T10:37:02.979Z,4.67
2022-08-02T10:38:02.975Z,4.67
2022-08-02T10:39:02.953Z,6.12
2022-08-02T10:40:02.961Z,6.12
2022-08-02T10:41:05.714Z,5.09
2022-08-02T10:42:02.966Z,5.09
2022-08-02T10:43:02.959Z,4.72
2022-08-02T10:44:02.953Z,4.72
2022-08-02T10:45:02.953Z,5.9
2022-08-02T10:46:02.962Z,5.9
2022-08-02T10:47:02.948Z,4.74
2022-08-02T10:48:02.975Z,4.74
2022-08-02T10:49:23.911Z,5.53
2022-08-02T10:50:02.980Z,5.53
2022-08-02T10:51:02.945Z,5.26
2022-08-02T10:52:02.968Z,5.26
2022-08-02T10:53:02.955Z,4.29
2022-08-02T10:54:02.947Z,4.29
2022-08-02T10:55:02.944Z,3.78
2022-08-02T10:56:02.942Z,3.78
2022-08-02T10:57:02.978Z,5.11
2022-08-02T10:58:02.938Z,5.11
2022-08-02T10:59:02.935Z,4.39
2022-08-02T11:00:02.939Z,4.39
2022-08-02T11:01:02.977Z,3.61
2022-08-02T11:02:02.953Z,3.61
2022-08-02T11:03:02.945Z,4.15
2022-08-02T11:04:07.069Z,4.15
2022-08-02T11:05:02.941Z,4.29
2022-08-02T11:06:02.942Z,4.29
2022-08-02T11:07:02.928Z,5.82
2022-08-02T11:08:02.953Z,5.82
2022-08-02T11:09:04.414Z,3.89
2022-08-02T11:10:02.919Z,3.89
2022-08-02T11:11:02.921Z,3.53
2022-08-02T11:12:02.922Z,3.53
2022-08-02T11:13:02.942Z,3.07
2022-08-02T11:14:02.919Z,3.07
2022-08-02T11:15:02.914Z,3.49
2022-08-02T11:16:06.487Z,3.49
2022-08-02T11:17:02.912Z,2.9
2022-08-02T11:18:02.921Z,2.9
2022-08-02T11:19:02.927Z,3.03
2022-08-02T11:20:02.924Z,3.03
2022-08-02T11:21:02.904Z,2.99
2022-08-02T11:22:02.905Z,2.99
2022-08-02T11:23:02.909Z,3.33
2022-08-02T11:24:02.916Z,3.33
2022-08-02T11:25:02.913Z,3.09
2022-08-02T11:26:10.951Z,3.09
2022-08-02T11:27:02.906Z,4.67
2022-08-02T11:28:02.900Z,4.67
2022-08-02T11:29:02.909Z,3.02
2022-08-02T11:30:02.928Z,3.02
2022-08-02T11:31:03.105Z,3.15
2022-08-02T11:32:02.898Z,3.15
2022-08-02T11:33:02.900Z,3.22
2022-08-02T11:34:05.392Z,3.22
2022-08-02T11:35:02.888Z,3.08
2022-08-02T11:36:02.884Z,3.08
2022-08-02T11:37:02.886Z,2.76
2022-08-02T11:38:02.903Z,2.76
2022-08-02T11:39:02.887Z,3.32
2022-08-02T11:40:02.902Z,3.32
2022-08-02T11:41:06.052Z,2.89
2022-08-02T11:42:02.883Z,2.89
2022-08-02T11:43:02.887Z,3.08
2022-08-02T11:44:02.890Z,3.08
2022-08-02T11:45:02.903Z,2.78
2022-08-02T11:46:02.894Z,2.78
2022-08-02T11:47:02.884Z,3.51
2022-08-02T11:48:02.882Z,3.51
2022-08-02T11:49:02.956Z,2.6
2022-08-02T11:50:02.879Z,2.6
2022-08-02T11:51:02.884Z,2.62
2022-08-02T11:52:02.871Z,2.62
2022-08-02T11:53:02.876Z,2.93
2022-08-02T11:54:02.872Z,2.93
2022-08-02T11:55:02.875Z,2.8
2022-08-02T11:56:02.872Z,2.8
2022-08-02T11:57:02.870Z,2.67
2022-08-02T11:58:05.375Z,2.67
2022-08-02T11:59:02.872Z,2.8
2022-08-02T12:00:02.863Z,2.8
2022-08-02T12:01:02.868Z,2.93
2022-08-02T12:02:02.873Z,2.93
2022-08-02T12:03:02.897Z,2.95
2022-08-02T12:04:02.862Z,2.95
2022-08-02T12:05:02.999Z,2.73
2022-08-02T12:06:06.451Z,2.73
2022-08-02T12:07:02.867Z,3
2022-08-02T12:08:02.860Z,3
2022-08-02T12:09:02.856Z,3.27
2022-08-02T12:10:02.858Z,3.27
2022-08-02T12:11:02.851Z,3.65
2022-08-02T12:12:02.865Z,3.65
2022-08-02T12:13:02.856Z,3.04
2022-08-02T12:14:02.845Z,3.04
2022-08-02T12:15:02.920Z,2.91
2022-08-02T12:16:05.951Z,2.91
2022-08-02T12:17:02.849Z,2.77
2022-08-02T12:18:02.849Z,2.77
2022-08-02T12:19:02.844Z,4.24
2022-08-02T12:20:02.842Z,4.24
2022-08-02T12:21:02.836Z,2.91
2022-08-02T12:22:02.854Z,2.91
2022-08-02T12:23:02.834Z,2.28
2022-08-02T12:24:02.829Z,2.28
2022-08-02T12:25:02.834Z,3.41
2022-08-02T12:26:02.832Z,3.41
2022-08-02T12:27:02.839Z,5.47
2022-08-02T12:28:02.831Z,5.47
2022-08-02T12:29:02.834Z,3.2
2022-08-02T12:30:02.851Z,3.2
2022-08-02T12:31:02.825Z,3.75
2022-08-02T12:32:02.836Z,3.75
2022-08-02T12:33:02.824Z,3.25
2022-08-02T12:34:02.827Z,3.25
2022-08-02T12:35:02.834Z,3.28
2022-08-02T12:36:02.829Z,3.28
2022-08-02T12:37:02.834Z,3.03
2022-08-02T12:38:02.993Z,3.03
2022-08-02T12:39:02.834Z,4.5
2022-08-02T12:40:02.822Z,4.5
2022-08-02T12:41:02.812Z,2.96
2022-08-02T12:42:02.817Z,2.96
2022-08-02T12:43:02.821Z,2.57
2022-08-02T12:44:02.823Z,2.57
2022-08-02T12:45:02.808Z,3.4
2022-08-02T12:46:02.818Z,3.4
2022-08-02T12:47:04.017Z,3.68
2022-08-02T12:48:02.816Z,3.68
2022-08-02T12:49:17.224Z,3.33
2022-08-02T12:50:02.856Z,3.33
2022-08-02T12:51:02.813Z,5.25
2022-08-02T12:52:06.680Z,5.25
2022-08-02T12:53:02.814Z,3.92
2022-08-02T12:54:02.818Z,3.92
2022-08-02T12:55:02.797Z,3.18
2022-08-02T12:56:03.915Z,3.18
2022-08-02T12:57:02.828Z,3.34
2022-08-02T12:58:02.802Z,3.34
2022-08-02T12:59:02.795Z,3.94
2022-08-02T13:00:02.862Z,3.94
2022-08-02T13:01:02.807Z,3.64
2022-08-02T13:02:02.867Z,3.64
2022-08-02T13:03:02.805Z,3.35
2022-08-02T13:04:09.554Z,3.35
2022-08-02T13:05:02.997Z,3.11
2022-08-02T13:06:17.044Z,3.11
2022-08-02T13:07:02.961Z,2.88
2022-08-02T13:08:02.788Z,2.88
2022-08-02T13:09:02.835Z,2.67
2022-08-02T13:10:03.595Z,2.67
2022-08-02T13:11:02.779Z,3.13
2022-08-02T13:12:02.779Z,3.13
2022-08-02T13:13:02.780Z,3.93
2022-08-02T13:14:02.808Z,3.93
2022-08-02T13:15:02.775Z,3.32
2022-08-02T13:16:02.777Z,3.32
2022-08-02T13:17:02.774Z,3.42
2022-08-02T13:18:02.778Z,3.42
2022-08-02T13:19:02.787Z,3.79
2022-08-02T13:20:02.866Z,3.79
2022-08-02T13:21:02.773Z,2.8
2022-08-02T13:22:03.840Z,2.8